Startpagina
METAR-TAF:

METAR-TAF

Vliegvelden :

Dubai International Airport

Dubai, Verenigde Arabische Emiraten

breedte: 25-15-10N, lengte: 055-21-52E, hoogte: 8 m

Actueel weer

Dit bericht is 46 minuten geleden gemaakt, om 08:00 UTC
Wind 8 kt uit het westen, variërend tussen het zuidwesten en het noordwesten
Temperatuur 39°C
Vochtigheid 30%
Druk 997 hPa
Zicht 10 km of meer
geen wolken onder 1500 m en geen cumulonimbus

METAR: OMDB 180800Z 26008KT 230V310 CAVOK 39/18 Q0997 NOSIG

Tijdstip: 12:46 (08:46 UTC)

Verwachting

Dit bericht is 3 uur en het 46 minuten geleden gemaakt, om 05:00 UTC
Verwachting geldig van 18 om 06 UTC tot 19 om 12 UTC
Wind 12 kt uit het westen
Zicht 10 km of meer
geen wolken onder 1500 m en geen cumulonimbus
Wijzigt naar
van 18 om 17 UTC tot 18 om 19 UTC
Wind 7 kt uit het zuiden
Wijzigt naar
van 19 om 06 UTC tot 19 om 08 UTC
Wind 12 kt uit het westen

TAF: OMDB 180500Z 1806/1912 27012KT CAVOK BECMG 1817/1819 19007KT BECMG 1906/1908 28012KT

Waarnemingen en weersverwachtingen van meer dan 4000 vliegvelden (METAR en TAF).

De beschikbare stations zijn de gele en rode punten op de kaart.

Ga met uw muis naar het station om de naam te zien.

Klik dan om waarnemingen en weersverwachtingen te zien.

kaart wijzigen: klik op de groene knoppen met een zwart kruis om in te zoomen, op de groene knop met een streepje om uit te zoomen of op de groene pijlen voor aangrenzende kaarten.


METAR-TAF: